sensor_id;sensor_type;location;lat;lon;timestamp;P1;durP1;ratioP1;P2;durP2;ratioP2
55815;SDS011;41744;52.404;16.942;2023-01-29T00:00:06;14.17;;;5.53;;
55815;SDS011;41744;52.404;16.942;2023-01-29T00:02:37;16.37;;;5.57;;
55815;SDS011;41744;52.404;16.942;2023-01-29T00:05:03;14.53;;;4.93;;
55815;SDS011;41744;52.404;16.942;2023-01-29T00:07:30;14.77;;;5.17;;
55815;SDS011;41744;52.404;16.942;2023-01-29T00:09:56;15.60;;;5.87;;
55815;SDS011;41744;52.404;16.942;2023-01-29T00:12:22;15.07;;;5.20;;
55815;SDS011;41744;52.404;16.942;2023-01-29T00:14:48;15.43;;;5.27;;
55815;SDS011;41744;52.404;16.942;2023-01-29T00:17:14;13.13;;;5.10;;
55815;SDS011;41744;52.404;16.942;2023-01-29T00:19:40;12.70;;;4.77;;
55815;SDS011;41744;52.404;16.942;2023-01-29T00:22:07;11.90;;;5.10;;
55815;SDS011;41744;52.404;16.942;2023-01-29T00:24:33;15.63;;;5.47;;
55815;SDS011;41744;52.404;16.942;2023-01-29T00:26:59;13.87;;;4.37;;
55815;SDS011;41744;52.404;16.942;2023-01-29T00:29:25;15.63;;;4.77;;
55815;SDS011;41744;52.404;16.942;2023-01-29T00:31:51;12.53;;;4.80;;
55815;SDS011;41744;52.404;16.942;2023-01-29T00:34:17;16.03;;;4.90;;
55815;SDS011;41744;52.404;16.942;2023-01-29T00:36:43;14.13;;;4.70;;
55815;SDS011;41744;52.404;16.942;2023-01-29T00:39:10;15.90;;;4.77;;
55815;SDS011;41744;52.404;16.942;2023-01-29T00:41:36;13.73;;;4.47;;
55815;SDS011;41744;52.404;16.942;2023-01-29T00:44:21;8.57;;;4.00;;
55815;SDS011;41744;52.404;16.942;2023-01-29T00:47:06;11.37;;;4.50;;
55815;SDS011;41744;52.404;16.942;2023-01-29T00:49:52;14.17;;;4.40;;
55815;SDS011;41744;52.404;16.942;2023-01-29T00:52:18;15.67;;;4.90;;
55815;SDS011;41744;52.404;16.942;2023-01-29T00:54:54;12.80;;;3.93;;
55815;SDS011;41744;52.404;16.942;2023-01-29T00:57:21;10.93;;;4.30;;
55815;SDS011;41744;52.404;16.942;2023-01-29T00:59:47;13.83;;;5.13;;
55815;SDS011;41744;52.404;16.942;2023-01-29T01:02:13;12.00;;;4.43;;
55815;SDS011;41744;52.404;16.942;2023-01-29T01:04:57;11.00;;;3.93;;
55815;SDS011;41744;52.404;16.942;2023-01-29T01:07:26;13.00;;;4.40;;
55815;SDS011;41744;52.404;16.942;2023-01-29T01:09:52;11.83;;;4.87;;
55815;SDS011;41744;52.404;16.942;2023-01-29T01:12:36;14.77;;;4.70;;
55815;SDS011;41744;52.404;16.942;2023-01-29T01:15:03;11.03;;;4.57;;
55815;SDS011;41744;52.404;16.942;2023-01-29T01:17:31;11.20;;;4.33;;
55815;SDS011;41744;52.404;16.942;2023-01-29T01:19:57;14.67;;;4.73;;
55815;SDS011;41744;52.404;16.942;2023-01-29T01:22:23;14.33;;;4.87;;
55815;SDS011;41744;52.404;16.942;2023-01-29T01:24:49;16.50;;;5.00;;
55815;SDS011;41744;52.404;16.942;2023-01-29T01:27:15;13.93;;;4.40;;
55815;SDS011;41744;52.404;16.942;2023-01-29T01:29:43;12.67;;;4.87;;
55815;SDS011;41744;52.404;16.942;2023-01-29T01:32:10;11.70;;;4.60;;
55815;SDS011;41744;52.404;16.942;2023-01-29T01:34:36;11.93;;;4.50;;
55815;SDS011;41744;52.404;16.942;2023-01-29T01:37:05;14.80;;;4.63;;
55815;SDS011;41744;52.404;16.942;2023-01-29T01:39:34;13.97;;;4.50;;
55815;SDS011;41744;52.404;16.942;2023-01-29T01:42:00;9.93;;;4.43;;
55815;SDS011;41744;52.404;16.942;2023-01-29T01:47:11;13.40;;;4.47;;
55815;SDS011;41744;52.404;16.942;2023-01-29T01:49:40;14.73;;;4.50;;
55815;SDS011;41744;52.404;16.942;2023-01-29T01:52:06;9.90;;;4.27;;
55815;SDS011;41744;52.404;16.942;2023-01-29T01:54:33;12.20;;;4.77;;
55815;SDS011;41744;52.404;16.942;2023-01-29T01:57:03;11.93;;;4.50;;
55815;SDS011;41744;52.404;16.942;2023-01-29T02:02:36;17.37;;;4.47;;
55815;SDS011;41744;52.404;16.942;2023-01-29T02:05:21;13.53;;;4.90;;
55815;SDS011;41744;52.404;16.942;2023-01-29T02:08:06;10.80;;;4.30;;
55815;SDS011;41744;52.404;16.942;2023-01-29T02:10:51;16.53;;;4.70;;
55815;SDS011;41744;52.404;16.942;2023-01-29T02:13:17;13.07;;;4.80;;
55815;SDS011;41744;52.404;16.942;2023-01-29T02:15:44;15.23;;;4.97;;
55815;SDS011;41744;52.404;16.942;2023-01-29T02:18:13;11.00;;;4.13;;
55815;SDS011;41744;52.404;16.942;2023-01-29T02:20:40;12.07;;;4.80;;
55815;SDS011;41744;52.404;16.942;2023-01-29T02:31:00;12.63;;;4.30;;
55815;SDS011;41744;52.404;16.942;2023-01-29T02:36:14;13.57;;;4.13;;
55815;SDS011;41744;52.404;16.942;2023-01-29T02:41:17;12.17;;;4.23;;
55815;SDS011;41744;52.404;16.942;2023-01-29T02:43:47;10.73;;;4.40;;
55815;SDS011;41744;52.404;16.942;2023-01-29T02:48:57;11.73;;;4.17;;
55815;SDS011;41744;52.404;16.942;2023-01-29T02:54:06;13.00;;;4.40;;
55815;SDS011;41744;52.404;16.942;2023-01-29T02:56:38;10.20;;;4.47;;
55815;SDS011;41744;52.404;16.942;2023-01-29T02:59:12;12.67;;;4.13;;
55815;SDS011;41744;52.404;16.942;2023-01-29T03:01:51;12.93;;;4.47;;
55815;SDS011;41744;52.404;16.942;2023-01-29T03:04:19;11.20;;;4.07;;
55815;SDS011;41744;52.404;16.942;2023-01-29T03:06:51;12.03;;;3.97;;
55815;SDS011;41744;52.404;16.942;2023-01-29T03:09:23;12.47;;;4.40;;
55815;SDS011;41744;52.404;16.942;2023-01-29T03:11:54;11.10;;;4.50;;
55815;SDS011;41744;52.404;16.942;2023-01-29T03:14:35;9.30;;;4.17;;
55815;SDS011;41744;52.404;16.942;2023-01-29T03:17:22;13.43;;;4.27;;
55815;SDS011;41744;52.404;16.942;2023-01-29T03:19:51;9.63;;;4.00;;
55815;SDS011;41744;52.404;16.942;2023-01-29T03:22:18;10.60;;;3.70;;
55815;SDS011;41744;52.404;16.942;2023-01-29T03:24:56;12.53;;;3.83;;
55815;SDS011;41744;52.404;16.942;2023-01-29T03:27:43;9.97;;;4.20;;
55815;SDS011;41744;52.404;16.942;2023-01-29T03:30:36;8.27;;;3.70;;
55815;SDS011;41744;52.404;16.942;2023-01-29T03:33:22;10.13;;;3.63;;
55815;SDS011;41744;52.404;16.942;2023-01-29T03:35:52;10.70;;;3.43;;
55815;SDS011;41744;52.404;16.942;2023-01-29T03:38:22;11.07;;;3.67;;
55815;SDS011;41744;52.404;16.942;2023-01-29T03:41:54;10.10;;;3.67;;
55815;SDS011;41744;52.404;16.942;2023-01-29T03:43:54;8.87;;;3.70;;
55815;SDS011;41744;52.404;16.942;2023-01-29T03:46:26;7.67;;;3.37;;
55815;SDS011;41744;52.404;16.942;2023-01-29T03:49:06;9.20;;;4.00;;
55815;SDS011;41744;52.404;16.942;2023-01-29T03:51:36;8.53;;;3.47;;
55815;SDS011;41744;52.404;16.942;2023-01-29T03:54:12;11.57;;;3.93;;
55815;SDS011;41744;52.404;16.942;2023-01-29T03:56:51;10.57;;;4.27;;
55815;SDS011;41744;52.404;16.942;2023-01-29T03:59:38;11.03;;;4.00;;
55815;SDS011;41744;52.404;16.942;2023-01-29T04:02:07;10.53;;;3.90;;
55815;SDS011;41744;52.404;16.942;2023-01-29T04:04:35;10.17;;;3.93;;
55815;SDS011;41744;52.404;16.942;2023-01-29T04:07:20;9.17;;;4.10;;
55815;SDS011;41744;52.404;16.942;2023-01-29T04:12:18;8.90;;;4.00;;
55815;SDS011;41744;52.404;16.942;2023-01-29T04:14:45;11.67;;;4.17;;
55815;SDS011;41744;52.404;16.942;2023-01-29T04:17:15;10.60;;;4.00;;
55815;SDS011;41744;52.404;16.942;2023-01-29T04:19:43;12.03;;;4.33;;
55815;SDS011;41744;52.404;16.942;2023-01-29T04:22:14;10.60;;;4.17;;
55815;SDS011;41744;52.404;16.942;2023-01-29T04:24:41;9.47;;;3.77;;
55815;SDS011;41744;52.404;16.942;2023-01-29T04:32:17;10.37;;;4.20;;
55815;SDS011;41744;52.404;16.942;2023-01-29T04:37:41;13.73;;;4.60;;
55815;SDS011;41744;52.404;16.942;2023-01-29T04:45:35;11.47;;;4.57;;
55815;SDS011;41744;52.404;16.942;2023-01-29T04:51:16;13.83;;;3.93;;
55815;SDS011;41744;52.404;16.942;2023-01-29T04:53:48;9.83;;;4.10;;
55815;SDS011;41744;52.404;16.942;2023-01-29T04:58:44;8.43;;;3.90;;
55815;SDS011;41744;52.404;16.942;2023-01-29T05:01:13;8.90;;;3.60;;
55815;SDS011;41744;52.404;16.942;2023-01-29T05:03:41;13.63;;;4.47;;
55815;SDS011;41744;52.404;16.942;2023-01-29T05:06:08;9.57;;;4.20;;
55815;SDS011;41744;52.404;16.942;2023-01-29T05:08:35;14.80;;;4.73;;
55815;SDS011;41744;52.404;16.942;2023-01-29T05:11:02;9.67;;;4.17;;
55815;SDS011;41744;52.404;16.942;2023-01-29T05:13:29;8.00;;;3.97;;
55815;SDS011;41744;52.404;16.942;2023-01-29T05:18:49;11.90;;;4.10;;
55815;SDS011;41744;52.404;16.942;2023-01-29T05:21:15;8.97;;;4.03;;
55815;SDS011;41744;52.404;16.942;2023-01-29T05:23:41;12.77;;;3.80;;
55815;SDS011;41744;52.404;16.942;2023-01-29T05:26:18;9.80;;;4.00;;
55815;SDS011;41744;52.404;16.942;2023-01-29T05:29:02;10.27;;;3.80;;
55815;SDS011;41744;52.404;16.942;2023-01-29T05:31:28;8.97;;;3.90;;
55815;SDS011;41744;52.404;16.942;2023-01-29T05:33:54;11.00;;;4.10;;
55815;SDS011;41744;52.404;16.942;2023-01-29T05:36:20;9.93;;;3.90;;
55815;SDS011;41744;52.404;16.942;2023-01-29T05:38:46;10.97;;;4.20;;
55815;SDS011;41744;52.404;16.942;2023-01-29T05:41:12;9.27;;;3.93;;
55815;SDS011;41744;52.404;16.942;2023-01-29T05:43:40;10.17;;;3.93;;
55815;SDS011;41744;52.404;16.942;2023-01-29T05:46:06;8.53;;;4.10;;
55815;SDS011;41744;52.404;16.942;2023-01-29T05:48:32;8.27;;;3.97;;
55815;SDS011;41744;52.404;16.942;2023-01-29T05:50:59;10.83;;;4.13;;
55815;SDS011;41744;52.404;16.942;2023-01-29T05:53:25;8.23;;;3.83;;
55815;SDS011;41744;52.404;16.942;2023-01-29T05:55:53;9.10;;;3.30;;
55815;SDS011;41744;52.404;16.942;2023-01-29T06:01:18;7.27;;;3.43;;
55815;SDS011;41744;52.404;16.942;2023-01-29T06:03:44;8.77;;;3.87;;
55815;SDS011;41744;52.404;16.942;2023-01-29T06:06:11;7.90;;;3.87;;
55815;SDS011;41744;52.404;16.942;2023-01-29T06:08:37;8.40;;;4.03;;
55815;SDS011;41744;52.404;16.942;2023-01-29T06:11:05;10.00;;;4.10;;
55815;SDS011;41744;52.404;16.942;2023-01-29T06:13:31;11.43;;;4.20;;
55815;SDS011;41744;52.404;16.942;2023-01-29T06:15:57;10.70;;;4.83;;
55815;SDS011;41744;52.404;16.942;2023-01-29T06:18:23;15.93;;;4.57;;
55815;SDS011;41744;52.404;16.942;2023-01-29T06:20:49;10.87;;;4.40;;
55815;SDS011;41744;52.404;16.942;2023-01-29T06:23:15;13.30;;;4.70;;
55815;SDS011;41744;52.404;16.942;2023-01-29T06:25:41;10.57;;;4.30;;
55815;SDS011;41744;52.404;16.942;2023-01-29T06:28:08;10.70;;;4.63;;
55815;SDS011;41744;52.404;16.942;2023-01-29T06:30:34;11.77;;;4.87;;
55815;SDS011;41744;52.404;16.942;2023-01-29T06:33:00;11.03;;;4.90;;
55815;SDS011;41744;52.404;16.942;2023-01-29T06:35:27;11.60;;;4.70;;
55815;SDS011;41744;52.404;16.942;2023-01-29T06:37:53;11.43;;;4.90;;
55815;SDS011;41744;52.404;16.942;2023-01-29T06:40:19;11.97;;;5.17;;
55815;SDS011;41744;52.404;16.942;2023-01-29T06:42:45;11.13;;;5.00;;
55815;SDS011;41744;52.404;16.942;2023-01-29T06:45:11;12.83;;;4.50;;
55815;SDS011;41744;52.404;16.942;2023-01-29T06:47:37;13.60;;;4.87;;
55815;SDS011;41744;52.404;16.942;2023-01-29T06:50:03;14.63;;;5.50;;
55815;SDS011;41744;52.404;16.942;2023-01-29T06:52:29;17.90;;;5.43;;
55815;SDS011;41744;52.404;16.942;2023-01-29T06:54:55;16.00;;;5.77;;
55815;SDS011;41744;52.404;16.942;2023-01-29T06:57:21;16.20;;;6.53;;
55815;SDS011;41744;52.404;16.942;2023-01-29T06:59:47;11.63;;;5.60;;
55815;SDS011;41744;52.404;16.942;2023-01-29T07:02:14;13.73;;;5.80;;
55815;SDS011;41744;52.404;16.942;2023-01-29T07:04:40;17.07;;;6.53;;
55815;SDS011;41744;52.404;16.942;2023-01-29T07:07:06;16.17;;;6.23;;
55815;SDS011;41744;52.404;16.942;2023-01-29T07:09:40;15.93;;;5.67;;
55815;SDS011;41744;52.404;16.942;2023-01-29T07:12:06;16.80;;;6.27;;
55815;SDS011;41744;52.404;16.942;2023-01-29T07:14:33;19.63;;;5.87;;
55815;SDS011;41744;52.404;16.942;2023-01-29T07:16:59;17.40;;;6.57;;
55815;SDS011;41744;52.404;16.942;2023-01-29T07:19:25;15.13;;;5.87;;
55815;SDS011;41744;52.404;16.942;2023-01-29T07:21:51;11.00;;;5.77;;
55815;SDS011;41744;52.404;16.942;2023-01-29T07:24:17;17.43;;;5.90;;
55815;SDS011;41744;52.404;16.942;2023-01-29T07:26:43;15.93;;;6.57;;
55815;SDS011;41744;52.404;16.942;2023-01-29T07:29:10;14.50;;;6.10;;
55815;SDS011;41744;52.404;16.942;2023-01-29T07:31:36;13.63;;;6.33;;
55815;SDS011;41744;52.404;16.942;2023-01-29T07:34:02;13.80;;;6.40;;
55815;SDS011;41744;52.404;16.942;2023-01-29T07:36:28;15.03;;;6.67;;
55815;SDS011;41744;52.404;16.942;2023-01-29T07:38:54;18.30;;;6.60;;
55815;SDS011;41744;52.404;16.942;2023-01-29T07:41:20;13.93;;;6.10;;
55815;SDS011;41744;52.404;16.942;2023-01-29T07:43:46;18.37;;;6.70;;
55815;SDS011;41744;52.404;16.942;2023-01-29T07:46:12;15.80;;;6.60;;
55815;SDS011;41744;52.404;16.942;2023-01-29T07:48:38;15.00;;;6.20;;
55815;SDS011;41744;52.404;16.942;2023-01-29T07:51:04;16.67;;;6.70;;
55815;SDS011;41744;52.404;16.942;2023-01-29T07:53:31;17.23;;;6.83;;
55815;SDS011;41744;52.404;16.942;2023-01-29T07:55:57;17.03;;;7.00;;
55815;SDS011;41744;52.404;16.942;2023-01-29T07:58:23;15.60;;;6.47;;
55815;SDS011;41744;52.404;16.942;2023-01-29T08:00:49;16.10;;;7.00;;
55815;SDS011;41744;52.404;16.942;2023-01-29T08:03:18;19.07;;;7.07;;
55815;SDS011;41744;52.404;16.942;2023-01-29T08:05:45;16.23;;;6.23;;
55815;SDS011;41744;52.404;16.942;2023-01-29T08:08:11;19.37;;;7.13;;
55815;SDS011;41744;52.404;16.942;2023-01-29T08:10:40;18.30;;;7.00;;
55815;SDS011;41744;52.404;16.942;2023-01-29T08:13:07;19.30;;;7.00;;
55815;SDS011;41744;52.404;16.942;2023-01-29T08:15:33;15.33;;;6.43;;
55815;SDS011;41744;52.404;16.942;2023-01-29T08:18:00;14.07;;;6.20;;
55815;SDS011;41744;52.404;16.942;2023-01-29T08:20:26;14.57;;;6.90;;
55815;SDS011;41744;52.404;16.942;2023-01-29T08:22:59;18.73;;;7.80;;
55815;SDS011;41744;52.404;16.942;2023-01-29T08:25:25;15.27;;;7.20;;
55815;SDS011;41744;52.404;16.942;2023-01-29T08:27:58;16.80;;;7.00;;
55815;SDS011;41744;52.404;16.942;2023-01-29T08:30:31;15.67;;;6.87;;
55815;SDS011;41744;52.404;16.942;2023-01-29T08:32:57;16.43;;;7.47;;
55815;SDS011;41744;52.404;16.942;2023-01-29T08:35:24;21.43;;;6.83;;
55815;SDS011;41744;52.404;16.942;2023-01-29T08:37:53;15.70;;;6.50;;
55815;SDS011;41744;52.404;16.942;2023-01-29T08:40:20;20.73;;;7.47;;
55815;SDS011;41744;52.404;16.942;2023-01-29T08:42:46;19.43;;;7.43;;
55815;SDS011;41744;52.404;16.942;2023-01-29T08:45:12;15.10;;;6.80;;
55815;SDS011;41744;52.404;16.942;2023-01-29T08:47:43;14.20;;;6.10;;
55815;SDS011;41744;52.404;16.942;2023-01-29T08:50:09;15.90;;;6.90;;
55815;SDS011;41744;52.404;16.942;2023-01-29T08:52:36;14.63;;;6.37;;
55815;SDS011;41744;52.404;16.942;2023-01-29T08:55:02;17.27;;;6.50;;
55815;SDS011;41744;52.404;16.942;2023-01-29T08:57:28;15.50;;;6.73;;
55815;SDS011;41744;52.404;16.942;2023-01-29T08:59:54;13.63;;;6.97;;
55815;SDS011;41744;52.404;16.942;2023-01-29T09:02:20;18.40;;;7.07;;
55815;SDS011;41744;52.404;16.942;2023-01-29T09:04:46;15.07;;;6.83;;
55815;SDS011;41744;52.404;16.942;2023-01-29T09:07:12;18.13;;;7.33;;
55815;SDS011;41744;52.404;16.942;2023-01-29T09:09:38;17.70;;;7.33;;
55815;SDS011;41744;52.404;16.942;2023-01-29T09:12:04;15.00;;;6.67;;
55815;SDS011;41744;52.404;16.942;2023-01-29T09:14:30;18.63;;;7.13;;
55815;SDS011;41744;52.404;16.942;2023-01-29T09:16:56;17.27;;;7.90;;
55815;SDS011;41744;52.404;16.942;2023-01-29T09:19:23;17.60;;;6.83;;
55815;SDS011;41744;52.404;16.942;2023-01-29T09:21:48;15.57;;;6.90;;
55815;SDS011;41744;52.404;16.942;2023-01-29T09:24:15;16.60;;;6.97;;
55815;SDS011;41744;52.404;16.942;2023-01-29T09:26:41;20.97;;;7.50;;
55815;SDS011;41744;52.404;16.942;2023-01-29T09:29:08;16.60;;;7.80;;
55815;SDS011;41744;52.404;16.942;2023-01-29T09:31:35;18.53;;;8.00;;
55815;SDS011;41744;52.404;16.942;2023-01-29T09:34:01;26.23;;;6.97;;
55815;SDS011;41744;52.404;16.942;2023-01-29T09:36:27;21.63;;;7.40;;
55815;SDS011;41744;52.404;16.942;2023-01-29T09:38:53;18.20;;;7.87;;
55815;SDS011;41744;52.404;16.942;2023-01-29T09:43:58;18.70;;;8.03;;
55815;SDS011;41744;52.404;16.942;2023-01-29T09:48:57;21.67;;;7.80;;
55815;SDS011;41744;52.404;16.942;2023-01-29T09:51:27;19.30;;;7.87;;
55815;SDS011;41744;52.404;16.942;2023-01-29T09:56:35;23.23;;;8.70;;
55815;SDS011;41744;52.404;16.942;2023-01-29T09:59:01;31.07;;;9.83;;
55815;SDS011;41744;52.404;16.942;2023-01-29T10:22:34;23.83;;;8.13;;
55815;SDS011;41744;52.404;16.942;2023-01-29T10:25:02;17.63;;;7.90;;
55815;SDS011;41744;52.404;16.942;2023-01-29T10:27:32;25.37;;;9.07;;
55815;SDS011;41744;52.404;16.942;2023-01-29T10:29:59;27.47;;;9.33;;
55815;SDS011;41744;52.404;16.942;2023-01-29T10:32:29;23.20;;;9.17;;
55815;SDS011;41744;52.404;16.942;2023-01-29T10:34:58;23.20;;;8.87;;
55815;SDS011;41744;52.404;16.942;2023-01-29T10:37:40;20.33;;;9.17;;
55815;SDS011;41744;52.404;16.942;2023-01-29T10:40:17;23.37;;;9.50;;
55815;SDS011;41744;52.404;16.942;2023-01-29T10:42:46;24.07;;;9.80;;
55815;SDS011;41744;52.404;16.942;2023-01-29T10:45:22;23.83;;;9.90;;
55815;SDS011;41744;52.404;16.942;2023-01-29T10:48:01;25.37;;;9.03;;
55815;SDS011;41744;52.404;16.942;2023-01-29T10:50:44;24.33;;;8.20;;
55815;SDS011;41744;52.404;16.942;2023-01-29T11:00:52;22.27;;;8.93;;
55815;SDS011;41744;52.404;16.942;2023-01-29T11:05:46;19.40;;;8.33;;
55815;SDS011;41744;52.404;16.942;2023-01-29T11:08:17;20.97;;;8.70;;
55815;SDS011;41744;52.404;16.942;2023-01-29T11:11:06;21.97;;;8.70;;
55815;SDS011;41744;52.404;16.942;2023-01-29T11:13:31;20.63;;;8.77;;
55815;SDS011;41744;52.404;16.942;2023-01-29T11:15:59;20.17;;;9.20;;
55815;SDS011;41744;52.404;16.942;2023-01-29T11:18:25;21.93;;;9.50;;
55815;SDS011;41744;52.404;16.942;2023-01-29T11:20:59;24.90;;;9.00;;
55815;SDS011;41744;52.404;16.942;2023-01-29T11:23:26;22.33;;;9.67;;
55815;SDS011;41744;52.404;16.942;2023-01-29T11:25:53;22.43;;;9.80;;
55815;SDS011;41744;52.404;16.942;2023-01-29T11:31:18;25.07;;;9.60;;
55815;SDS011;41744;52.404;16.942;2023-01-29T11:33:44;19.80;;;8.43;;
55815;SDS011;41744;52.404;16.942;2023-01-29T11:36:28;20.67;;;8.67;;
55815;SDS011;41744;52.404;16.942;2023-01-29T11:41:42;24.00;;;9.37;;
55815;SDS011;41744;52.404;16.942;2023-01-29T11:44:21;22.10;;;9.83;;
55815;SDS011;41744;52.404;16.942;2023-01-29T11:46:55;19.90;;;8.77;;
55815;SDS011;41744;52.404;16.942;2023-01-29T11:49:29;25.17;;;10.00;;
55815;SDS011;41744;52.404;16.942;2023-01-29T11:51:56;24.50;;;9.47;;
55815;SDS011;41744;52.404;16.942;2023-01-29T11:54:26;25.07;;;10.27;;
55815;SDS011;41744;52.404;16.942;2023-01-29T11:56:53;19.80;;;8.83;;
55815;SDS011;41744;52.404;16.942;2023-01-29T12:01:52;21.17;;;9.13;;
55815;SDS011;41744;52.404;16.942;2023-01-29T12:04:19;24.13;;;9.43;;
55815;SDS011;41744;52.404;16.942;2023-01-29T12:06:46;23.37;;;8.57;;
55815;SDS011;41744;52.404;16.942;2023-01-29T12:09:18;24.47;;;9.83;;
55815;SDS011;41744;52.404;16.942;2023-01-29T12:11:45;24.47;;;9.77;;
55815;SDS011;41744;52.404;16.942;2023-01-29T12:14:26;26.63;;;9.90;;
55815;SDS011;41744;52.404;16.942;2023-01-29T12:19:39;24.30;;;10.53;;
55815;SDS011;41744;52.404;16.942;2023-01-29T12:22:34;22.73;;;9.27;;
55815;SDS011;41744;52.404;16.942;2023-01-29T12:27:21;31.03;;;10.77;;
55815;SDS011;41744;52.404;16.942;2023-01-29T12:32:34;39.63;;;11.53;;
55815;SDS011;41744;52.404;16.942;2023-01-29T12:35:16;29.23;;;11.40;;
55815;SDS011;41744;52.404;16.942;2023-01-29T12:40:19;22.40;;;10.23;;
55815;SDS011;41744;52.404;16.942;2023-01-29T12:42:47;25.73;;;10.27;;
55815;SDS011;41744;52.404;16.942;2023-01-29T12:45:18;25.90;;;10.63;;
55815;SDS011;41744;52.404;16.942;2023-01-29T12:47:49;25.80;;;10.67;;
55815;SDS011;41744;52.404;16.942;2023-01-29T12:52:44;26.77;;;11.80;;
55815;SDS011;41744;52.404;16.942;2023-01-29T12:57:40;29.63;;;11.03;;
55815;SDS011;41744;52.404;16.942;2023-01-29T13:00:12;26.47;;;10.97;;
55815;SDS011;41744;52.404;16.942;2023-01-29T13:07:41;27.17;;;11.00;;
55815;SDS011;41744;52.404;16.942;2023-01-29T13:10:11;26.93;;;11.40;;
55815;SDS011;41744;52.404;16.942;2023-01-29T13:12:39;28.27;;;11.07;;
55815;SDS011;41744;52.404;16.942;2023-01-29T13:15:21;25.80;;;10.50;;
55815;SDS011;41744;52.404;16.942;2023-01-29T13:18:00;27.37;;;10.17;;
55815;SDS011;41744;52.404;16.942;2023-01-29T13:20:28;27.97;;;11.07;;
55815;SDS011;41744;52.404;16.942;2023-01-29T13:22:55;27.23;;;10.70;;
55815;SDS011;41744;52.404;16.942;2023-01-29T13:25:23;24.50;;;10.27;;
55815;SDS011;41744;52.404;16.942;2023-01-29T13:27:49;29.83;;;10.63;;
55815;SDS011;41744;52.404;16.942;2023-01-29T13:33:25;24.90;;;9.87;;
55815;SDS011;41744;52.404;16.942;2023-01-29T13:35:56;25.63;;;10.57;;
55815;SDS011;41744;52.404;16.942;2023-01-29T13:38:24;27.17;;;10.43;;
55815;SDS011;41744;52.404;16.942;2023-01-29T13:40:51;26.33;;;11.33;;
55815;SDS011;41744;52.404;16.942;2023-01-29T13:43:20;31.03;;;11.03;;
55815;SDS011;41744;52.404;16.942;2023-01-29T13:45:47;30.20;;;11.53;;
55815;SDS011;41744;52.404;16.942;2023-01-29T13:48:28;32.37;;;11.23;;
55815;SDS011;41744;52.404;16.942;2023-01-29T13:50:59;30.63;;;11.50;;
55815;SDS011;41744;52.404;16.942;2023-01-29T13:53:34;23.20;;;9.63;;
55815;SDS011;41744;52.404;16.942;2023-01-29T14:01:11;24.93;;;10.43;;
55815;SDS011;41744;52.404;16.942;2023-01-29T14:03:44;25.10;;;10.80;;
55815;SDS011;41744;52.404;16.942;2023-01-29T14:06:35;26.60;;;10.10;;
55815;SDS011;41744;52.404;16.942;2023-01-29T14:09:03;24.10;;;10.10;;
55815;SDS011;41744;52.404;16.942;2023-01-29T14:11:33;26.50;;;10.90;;
55815;SDS011;41744;52.404;16.942;2023-01-29T14:13:59;31.90;;;10.97;;
55815;SDS011;41744;52.404;16.942;2023-01-29T14:16:26;29.67;;;11.40;;
55815;SDS011;41744;52.404;16.942;2023-01-29T14:19:00;25.47;;;10.73;;
55815;SDS011;41744;52.404;16.942;2023-01-29T14:21:31;24.07;;;10.07;;
55815;SDS011;41744;52.404;16.942;2023-01-29T14:23:59;29.10;;;10.47;;
55815;SDS011;41744;52.404;16.942;2023-01-29T14:31:46;29.33;;;10.70;;
55815;SDS011;41744;52.404;16.942;2023-01-29T14:36:46;27.07;;;10.77;;
55815;SDS011;41744;52.404;16.942;2023-01-29T14:39:18;24.80;;;10.23;;
55815;SDS011;41744;52.404;16.942;2023-01-29T14:41:45;24.37;;;10.80;;
55815;SDS011;41744;52.404;16.942;2023-01-29T14:46:56;29.67;;;10.80;;
55815;SDS011;41744;52.404;16.942;2023-01-29T14:52:08;28.40;;;10.83;;
55815;SDS011;41744;52.404;16.942;2023-01-29T14:54:35;27.33;;;11.10;;
55815;SDS011;41744;52.404;16.942;2023-01-29T14:57:03;27.37;;;10.33;;
55815;SDS011;41744;52.404;16.942;2023-01-29T14:59:35;23.70;;;10.27;;
55815;SDS011;41744;52.404;16.942;2023-01-29T15:02:14;25.10;;;10.07;;
55815;SDS011;41744;52.404;16.942;2023-01-29T15:04:51;26.40;;;10.83;;
55815;SDS011;41744;52.404;16.942;2023-01-29T15:07:24;28.40;;;11.50;;
55815;SDS011;41744;52.404;16.942;2023-01-29T15:09:57;29.80;;;11.17;;
55815;SDS011;41744;52.404;16.942;2023-01-29T15:12:26;23.30;;;10.50;;
55815;SDS011;41744;52.404;16.942;2023-01-29T15:17:29;30.07;;;11.37;;
55815;SDS011;41744;52.404;16.942;2023-01-29T15:19:57;26.93;;;10.70;;
55815;SDS011;41744;52.404;16.942;2023-01-29T15:22:24;28.13;;;10.60;;
55815;SDS011;41744;52.404;16.942;2023-01-29T15:25:06;22.70;;;10.13;;
55815;SDS011;41744;52.404;16.942;2023-01-29T15:27:32;28.30;;;10.53;;
55815;SDS011;41744;52.404;16.942;2023-01-29T15:29:59;27.80;;;10.83;;
55815;SDS011;41744;52.404;16.942;2023-01-29T15:32:27;29.37;;;10.63;;
55815;SDS011;41744;52.404;16.942;2023-01-29T15:34:54;25.90;;;10.37;;
55815;SDS011;41744;52.404;16.942;2023-01-29T15:37:25;27.37;;;11.37;;
55815;SDS011;41744;52.404;16.942;2023-01-29T15:39:51;25.23;;;10.30;;
55815;SDS011;41744;52.404;16.942;2023-01-29T15:42:17;25.30;;;10.20;;
55815;SDS011;41744;52.404;16.942;2023-01-29T15:44:49;27.50;;;10.60;;
55815;SDS011;41744;52.404;16.942;2023-01-29T15:47:18;28.87;;;10.93;;
55815;SDS011;41744;52.404;16.942;2023-01-29T15:49:45;26.73;;;10.70;;
55815;SDS011;41744;52.404;16.942;2023-01-29T15:52:15;27.00;;;10.77;;
55815;SDS011;41744;52.404;16.942;2023-01-29T15:54:42;26.93;;;10.90;;
55815;SDS011;41744;52.404;16.942;2023-01-29T15:57:12;26.70;;;10.57;;
55815;SDS011;41744;52.404;16.942;2023-01-29T15:59:43;26.60;;;10.37;;
55815;SDS011;41744;52.404;16.942;2023-01-29T16:04:50;26.90;;;10.57;;
55815;SDS011;41744;52.404;16.942;2023-01-29T16:07:17;25.53;;;10.00;;
55815;SDS011;41744;52.404;16.942;2023-01-29T16:09:45;24.57;;;10.57;;
55815;SDS011;41744;52.404;16.942;2023-01-29T16:12:11;21.37;;;9.13;;
55815;SDS011;41744;52.404;16.942;2023-01-29T16:14:37;28.40;;;10.47;;
55815;SDS011;41744;52.404;16.942;2023-01-29T16:19:56;24.33;;;10.07;;
55815;SDS011;41744;52.404;16.942;2023-01-29T16:22:23;24.97;;;10.13;;
55815;SDS011;41744;52.404;16.942;2023-01-29T16:24:50;27.33;;;10.53;;
55815;SDS011;41744;52.404;16.942;2023-01-29T16:27:17;23.07;;;10.07;;
55815;SDS011;41744;52.404;16.942;2023-01-29T16:29:43;24.50;;;11.00;;
55815;SDS011;41744;52.404;16.942;2023-01-29T16:32:09;26.37;;;10.80;;
55815;SDS011;41744;52.404;16.942;2023-01-29T16:34:41;25.43;;;9.83;;
55815;SDS011;41744;52.404;16.942;2023-01-29T16:37:29;27.07;;;10.33;;
55815;SDS011;41744;52.404;16.942;2023-01-29T16:39:54;27.37;;;10.00;;
55815;SDS011;41744;52.404;16.942;2023-01-29T16:42:29;32.60;;;11.47;;
55815;SDS011;41744;52.404;16.942;2023-01-29T16:45:07;28.77;;;11.00;;
55815;SDS011;41744;52.404;16.942;2023-01-29T16:47:58;27.33;;;10.63;;
55815;SDS011;41744;52.404;16.942;2023-01-29T16:50:30;27.57;;;11.30;;
55815;SDS011;41744;52.404;16.942;2023-01-29T16:53:09;27.40;;;11.33;;
55815;SDS011;41744;52.404;16.942;2023-01-29T16:55:37;28.37;;;11.53;;
55815;SDS011;41744;52.404;16.942;2023-01-29T16:58:08;27.20;;;11.70;;
55815;SDS011;41744;52.404;16.942;2023-01-29T17:00:37;29.40;;;11.37;;